La Corey, Canada
Current Conditions -  °F | °C
As of 7:00 PM on Thursday 18 Dec 2014 (Local Time) from CYOD Reporting Station
Haze Haze  
Wind Chill:   Ceiling: 300
Heat Index: 18°   Visibility: 2mi
Dew Point: 18°   Wind: 6mph
Humidity: 100%   Direction: 250°WSW
Pressure: 29.88"   Gusts: NA
Location:  54.45°N, 110.76°W
Report Text: CYOD 190200Z 25005KT 2SM BR OVC003 M08/M08 A2988 RMK ST8SLP158
Loading
Personal Weather Stations






























Interactive Weather Map New forecast layout! Learn more

10-Day Weather Forecast

Advertisements
Track Severe Weather on mobile